createdAt,value
2022-10-17T00:00:58.098Z,40.30
2022-10-17T00:03:47.677Z,33.70
2022-10-17T00:06:29.365Z,36.50
2022-10-17T00:09:11.056Z,39.30
2022-10-17T00:11:52.850Z,40.50
2022-10-17T00:14:35.052Z,37.60
2022-10-17T00:17:16.756Z,38.70
2022-10-17T00:20:00.155Z,41.40
2022-10-17T00:22:43.095Z,44.80
2022-10-17T00:25:25.093Z,42.20
2022-10-17T00:28:09.859Z,38.80
2022-10-17T00:31:03.119Z,39.90
2022-10-17T00:33:45.118Z,41.10
2022-10-17T00:36:27.320Z,41.50
2022-10-17T00:39:09.525Z,37.40
2022-10-17T00:41:51.418Z,36.30
2022-10-17T00:44:34.749Z,38.70
2022-10-17T00:47:22.599Z,35.90
2022-10-17T00:50:07.350Z,38.70
2022-10-17T00:52:49.534Z,39.90
2022-10-17T00:55:35.541Z,40.20
2022-10-17T00:58:19.106Z,40.80
2022-10-17T01:01:02.858Z,45.90
2022-10-17T01:03:44.914Z,43.80
2022-10-17T01:06:27.281Z,42.40
2022-10-17T01:09:09.238Z,44.40
2022-10-17T01:12:06.780Z,47.30
2022-10-17T01:15:11.305Z,44.20
2022-10-17T01:18:08.459Z,46.70
2022-10-17T01:21:00.054Z,46.00
2022-10-17T01:24:14.271Z,45.70
2022-10-17T01:27:26.134Z,49.00
2022-10-17T01:30:29.432Z,49.70
2022-10-17T01:33:19.838Z,48.00
2022-10-17T01:36:05.997Z,47.90
2022-10-17T01:39:15.056Z,46.40
2022-10-17T01:42:14.154Z,46.50
2022-10-17T01:45:13.561Z,46.30
2022-10-17T01:48:00.678Z,47.70
2022-10-17T01:50:48.621Z,47.90
2022-10-17T01:53:36.048Z,45.80
2022-10-17T01:56:19.990Z,43.40
2022-10-17T01:59:13.452Z,44.30
2022-10-17T02:01:57.395Z,50.10
2022-10-17T02:04:41.750Z,41.60
2022-10-17T02:07:23.542Z,40.60
2022-10-17T02:10:15.372Z,42.20
2022-10-17T02:13:27.786Z,48.00
2022-10-17T02:16:37.944Z,52.50
2022-10-17T02:19:55.064Z,51.30
2022-10-17T02:23:01.125Z,51.80
2022-10-17T02:25:51.109Z,65.20
2022-10-17T02:28:47.790Z,70.70
2022-10-17T02:31:36.712Z,74.40
2022-10-17T02:34:41.054Z,64.40
2022-10-17T02:37:27.873Z,64.80
2022-10-17T02:40:14.454Z,64.70
2022-10-17T02:42:58.599Z,51.40
2022-10-17T02:45:40.802Z,44.10
2022-10-17T02:48:31.001Z,45.10
2022-10-17T02:51:24.256Z,42.80
2022-10-17T02:54:10.041Z,46.30
2022-10-17T02:57:02.535Z,43.70
2022-10-17T02:59:46.121Z,44.00
2022-10-17T03:02:28.659Z,46.00
2022-10-17T03:05:12.979Z,45.30
2022-10-17T03:07:56.110Z,47.90
2022-10-17T03:10:39.541Z,46.70
2022-10-17T03:13:21.337Z,47.00
2022-10-17T03:16:03.131Z,56.10
2022-10-17T03:18:47.962Z,53.40
2022-10-17T03:21:32.348Z,49.10
2022-10-17T03:24:14.549Z,46.60
2022-10-17T03:26:56.279Z,51.90
2022-10-17T03:29:38.340Z,53.40
2022-10-17T03:32:20.850Z,50.50
2022-10-17T03:35:03.872Z,52.50
2022-10-17T03:37:45.666Z,50.50
2022-10-17T03:40:27.562Z,52.90
2022-10-17T03:43:11.608Z,60.30
2022-10-17T03:45:54.426Z,56.80
2022-10-17T03:48:36.422Z,51.30
2022-10-17T03:51:19.037Z,49.10
2022-10-17T03:54:05.129Z,51.30
2022-10-17T03:56:47.104Z,51.20
2022-10-17T03:59:31.481Z,50.90
2022-10-17T04:02:17.985Z,48.10
2022-10-17T04:04:59.983Z,50.90
2022-10-17T04:07:41.777Z,49.90
2022-10-17T04:10:24.595Z,44.00
2022-10-17T04:13:07.001Z,46.80
2022-10-17T04:16:00.573Z,49.40
2022-10-17T04:18:43.081Z,43.70
2022-10-17T04:21:27.259Z,45.60
2022-10-17T04:24:11.993Z,45.40
2022-10-17T04:27:05.869Z,44.20
2022-10-17T04:29:50.632Z,36.90
2022-10-17T04:32:39.080Z,36.70
2022-10-17T04:35:29.782Z,40.60
2022-10-17T04:38:16.131Z,38.80
2022-10-17T04:41:04.334Z,39.20
2022-10-17T04:43:48.643Z,49.90
2022-10-17T04:46:34.775Z,36.90
2022-10-17T04:49:16.580Z,37.80
2022-10-17T04:51:59.282Z,39.90
2022-10-17T04:54:50.730Z,38.70
2022-10-17T04:57:35.878Z,45.60
2022-10-17T05:00:31.595Z,41.90
2022-10-17T05:03:24.855Z,47.10
2022-10-17T05:06:12.399Z,51.90
2022-10-17T05:08:54.586Z,45.60
2022-10-17T05:11:36.482Z,43.80
2022-10-17T05:14:18.275Z,43.00
2022-10-17T05:17:00.070Z,39.10
2022-10-17T05:19:43.403Z,40.30
2022-10-17T05:22:25.294Z,41.40
2022-10-17T05:25:07.598Z,37.80
2022-10-17T05:27:49.410Z,43.30
2022-10-17T05:30:36.729Z,41.00
2022-10-17T05:33:23.525Z,45.20
2022-10-17T05:36:07.602Z,44.20
2022-10-17T05:38:51.516Z,41.80
2022-10-17T05:41:33.411Z,43.90
2022-10-17T05:44:15.821Z,45.10
2022-10-17T05:47:00.378Z,38.10
2022-10-17T05:49:49.963Z,41.90
2022-10-17T05:52:36.494Z,39.10
2022-10-17T05:55:25.316Z,39.70
2022-10-17T05:58:07.213Z,44.10
2022-10-17T06:00:52.256Z,41.80
2022-10-17T06:03:34.178Z,47.00
2022-10-17T06:06:20.170Z,46.60
2022-10-17T06:09:03.199Z,45.30
2022-10-17T06:11:48.056Z,47.70
2022-10-17T06:14:30.361Z,40.30
2022-10-17T06:17:16.542Z,43.20
2022-10-17T06:19:59.887Z,45.10
2022-10-17T06:22:42.463Z,45.30
2022-10-17T06:25:31.872Z,41.60
2022-10-17T06:28:13.564Z,45.00
2022-10-17T06:30:55.977Z,42.90
2022-10-17T06:33:38.274Z,47.50
2022-10-17T06:36:20.375Z,52.20
2022-10-17T06:39:02.680Z,65.20
2022-10-17T06:41:50.516Z,52.70
2022-10-17T06:44:34.871Z,61.60
2022-10-17T06:47:37.487Z,47.80
2022-10-17T06:50:29.790Z,55.40
2022-10-17T06:53:28.797Z,53.50
2022-10-17T06:56:49.291Z,56.80
2022-10-17T06:59:44.497Z,55.10
2022-10-17T07:02:32.250Z,44.40
2022-10-17T07:05:16.072Z,47.80
2022-10-17T07:07:57.772Z,56.60
2022-10-17T07:10:40.168Z,55.60
2022-10-17T07:13:23.907Z,48.70
2022-10-17T07:16:07.138Z,58.20
2022-10-17T07:18:51.191Z,53.30
2022-10-17T07:21:36.568Z,65.30
2022-10-17T07:24:21.524Z,58.60
2022-10-17T07:27:08.541Z,54.30
2022-10-17T07:29:50.266Z,53.70
2022-10-17T07:32:38.374Z,55.80
2022-10-17T07:35:21.810Z,52.50
2022-10-17T07:38:03.906Z,52.90
2022-10-17T07:40:45.705Z,61.10
2022-10-17T07:43:28.823Z,54.30
2022-10-17T07:46:11.848Z,52.10
2022-10-17T07:48:53.740Z,56.70
2022-10-17T07:51:36.477Z,59.90
2022-10-17T07:54:18.352Z,59.30
2022-10-17T07:57:00.111Z,53.10
2022-10-17T07:59:42.213Z,57.70
2022-10-17T08:02:26.749Z,53.00
2022-10-17T08:05:08.916Z,49.80
2022-10-17T08:07:54.554Z,48.30
2022-10-17T08:10:37.032Z,56.50
2022-10-17T08:13:19.035Z,54.70
2022-10-17T08:16:07.820Z,54.50
2022-10-17T08:18:50.272Z,56.40
2022-10-17T08:21:32.265Z,52.20
2022-10-17T08:24:14.272Z,56.00
2022-10-17T08:26:58.529Z,48.90
2022-10-17T08:29:41.132Z,54.20
2022-10-17T08:32:27.364Z,53.70
2022-10-17T08:35:10.238Z,56.50
2022-10-17T08:37:52.555Z,53.70
2022-10-17T08:40:35.679Z,50.60
2022-10-17T08:43:36.619Z,49.70
2022-10-17T08:46:20.328Z,46.50
2022-10-17T08:49:12.173Z,56.40
2022-10-17T08:52:01.790Z,46.70
2022-10-17T08:54:47.334Z,49.50
2022-10-17T08:57:29.337Z,48.30
2022-10-17T09:00:18.758Z,44.30
2022-10-17T09:06:40.044Z,50.40
2022-10-17T09:09:29.517Z,47.10
2022-10-17T09:12:23.599Z,47.20
2022-10-17T09:15:43.383Z,44.10
2022-10-17T09:18:29.598Z,44.00
2022-10-17T09:21:53.178Z,41.80
2022-10-17T09:24:37.740Z,43.60
2022-10-17T09:27:36.194Z,43.50
2022-10-17T09:30:33.483Z,37.90
2022-10-17T09:33:35.944Z,42.70
2022-10-17T09:36:37.363Z,41.10
2022-10-17T09:39:23.069Z,40.80
2022-10-17T09:42:05.171Z,39.70
2022-10-17T09:45:13.482Z,36.10
2022-10-17T09:48:17.805Z,33.30
2022-10-17T09:51:14.604Z,34.00
2022-10-17T09:54:07.504Z,30.90
2022-10-17T09:57:06.807Z,32.30
2022-10-17T09:59:58.151Z,31.90
2022-10-17T10:02:41.048Z,29.80
2022-10-17T10:05:22.838Z,27.90
2022-10-17T10:08:13.439Z,30.10
2022-10-17T10:11:00.864Z,26.30
2022-10-17T10:13:43.375Z,25.40
2022-10-17T10:16:32.948Z,31.50
2022-10-17T10:19:31.319Z,30.10
2022-10-17T10:22:18.183Z,30.00
2022-10-17T10:25:16.830Z,26.40
2022-10-17T10:28:00.729Z,25.70
2022-10-17T10:30:48.508Z,29.20
2022-10-17T10:33:32.287Z,24.80
2022-10-17T10:36:14.040Z,26.80
2022-10-17T10:39:01.215Z,29.40
2022-10-17T10:41:48.582Z,27.10
2022-10-17T10:44:33.209Z,25.50
2022-10-17T10:47:30.166Z,30.90
2022-10-17T10:50:31.748Z,24.70
2022-10-17T10:53:32.818Z,26.60
2022-10-17T10:56:41.698Z,26.70
2022-10-17T10:59:38.365Z,35.50
2022-10-17T11:02:31.014Z,27.00
2022-10-17T11:05:28.165Z,21.00
2022-10-17T11:08:20.518Z,22.80
2022-10-17T11:11:25.032Z,23.00
2022-10-17T11:14:38.673Z,21.90
2022-10-17T11:17:43.301Z,24.30
2022-10-17T11:20:53.052Z,25.90
2022-10-17T11:23:44.981Z,18.60
2022-10-17T11:26:29.655Z,17.40
2022-10-17T11:29:13.596Z,18.70
2022-10-17T11:31:58.467Z,17.40
2022-10-17T11:34:46.183Z,20.80
2022-10-17T11:37:34.460Z,18.70
2022-10-17T11:40:24.388Z,21.20
2022-10-17T11:43:20.543Z,20.80
2022-10-17T11:46:10.629Z,20.90
2022-10-17T11:52:00.639Z,21.20
2022-10-17T11:54:50.503Z,19.40
2022-10-17T11:58:02.318Z,18.60
2022-10-17T12:01:08.275Z,19.60
2022-10-17T12:04:06.769Z,17.00
2022-10-17T12:07:01.223Z,20.20
2022-10-17T12:10:00.248Z,17.50
2022-10-17T12:12:41.938Z,17.20
2022-10-17T12:15:23.629Z,18.50
2022-10-17T12:18:05.729Z,20.90
2022-10-17T12:21:01.244Z,17.10
2022-10-17T12:23:52.783Z,17.50
2022-10-17T12:26:34.562Z,18.10
2022-10-17T12:29:30.176Z,16.90
2022-10-17T12:32:13.096Z,17.50
2022-10-17T12:34:57.362Z,19.40
2022-10-17T12:37:48.356Z,18.30
2022-10-17T12:40:35.781Z,17.00
2022-10-17T12:43:17.473Z,17.60
2022-10-17T12:46:04.591Z,17.30
2022-10-17T12:49:00.945Z,16.60
2022-10-17T12:52:11.185Z,20.10
2022-10-17T12:55:14.235Z,19.00
2022-10-17T12:58:03.161Z,18.20
2022-10-17T13:01:18.843Z,23.60
2022-10-17T13:04:04.434Z,20.80
2022-10-17T13:07:21.119Z,21.50
2022-10-17T13:10:05.455Z,20.10
2022-10-17T13:12:48.187Z,20.70
2022-10-17T13:15:42.714Z,19.00
2022-10-17T13:18:43.284Z,20.20
2022-10-17T13:21:33.692Z,21.10
2022-10-17T13:24:29.634Z,24.80
2022-10-17T13:27:30.425Z,19.70
2022-10-17T13:30:32.570Z,20.20
2022-10-17T13:33:40.659Z,28.30
2022-10-17T13:36:24.967Z,20.00
2022-10-17T13:39:17.231Z,20.90
2022-10-17T13:42:04.345Z,21.70
2022-10-17T13:44:49.821Z,19.70
2022-10-17T13:47:38.597Z,17.80
2022-10-17T13:50:46.116Z,16.20
2022-10-17T13:53:33.110Z,16.30
2022-10-17T13:56:29.823Z,19.50
2022-10-17T13:59:24.037Z,18.70
2022-10-17T14:02:12.795Z,16.80
2022-10-17T14:05:18.927Z,19.00
2022-10-17T14:08:13.681Z,19.70
2022-10-17T14:10:56.573Z,19.80
2022-10-17T14:13:38.776Z,18.40
2022-10-17T14:16:21.497Z,18.80
2022-10-17T14:19:06.109Z,19.10
2022-10-17T14:21:55.027Z,20.40
2022-10-17T14:24:37.002Z,17.70
2022-10-17T14:27:53.005Z,19.50
2022-10-17T14:30:57.837Z,22.10
2022-10-17T14:33:50.516Z,18.60
2022-10-17T14:36:42.908Z,24.80
2022-10-17T14:39:27.356Z,23.70
2022-10-17T14:42:19.614Z,23.30
2022-10-17T14:45:08.379Z,27.80
2022-10-17T14:47:51.952Z,21.70
2022-10-17T14:50:33.730Z,25.30
2022-10-17T14:53:15.408Z,23.10
2022-10-17T14:55:59.955Z,19.60
2022-10-17T14:58:41.599Z,25.70
2022-10-17T15:01:23.338Z,21.80
2022-10-17T15:04:05.132Z,24.90
2022-10-17T15:06:55.630Z,23.30
2022-10-17T15:09:37.320Z,24.90
2022-10-17T15:12:21.688Z,20.40
2022-10-17T15:15:03.568Z,24.00
2022-10-17T15:17:45.381Z,22.80
2022-10-17T15:20:30.157Z,22.00
2022-10-17T15:23:11.917Z,29.90
2022-10-17T15:25:54.017Z,25.70
2022-10-17T15:28:35.834Z,28.20
2022-10-17T15:31:21.834Z,24.30
2022-10-17T15:34:03.904Z,25.50
2022-10-17T15:36:52.826Z,25.40
2022-10-17T15:42:34.063Z,23.10
2022-10-17T15:45:18.624Z,25.00
2022-10-17T15:48:05.403Z,20.60
2022-10-17T15:51:32.038Z,27.10
2022-10-17T15:54:14.999Z,27.80
2022-10-17T15:56:58.223Z,27.20
2022-10-17T15:59:40.018Z,29.90
2022-10-17T16:02:23.825Z,31.50
2022-10-17T16:05:15.073Z,29.80
2022-10-17T16:07:57.896Z,32.00
2022-10-17T16:10:40.533Z,29.80
2022-10-17T16:13:26.783Z,30.00
2022-10-17T16:16:12.319Z,28.50
2022-10-17T16:18:54.388Z,30.30
2022-10-17T16:21:39.407Z,29.50
2022-10-17T16:24:21.147Z,29.70
2022-10-17T16:27:06.348Z,28.70
2022-10-17T16:29:50.975Z,29.80
2022-10-17T16:32:33.719Z,33.20
2022-10-17T16:35:27.341Z,31.60
2022-10-17T16:38:09.258Z,35.80
2022-10-17T16:40:51.256Z,34.70
2022-10-17T16:43:36.619Z,45.30
2022-10-17T16:46:19.209Z,35.50
2022-10-17T16:49:00.938Z,39.50
2022-10-17T16:51:42.628Z,35.10
2022-10-17T16:54:24.761Z,32.40
2022-10-17T16:57:06.523Z,32.10
2022-10-17T16:59:48.416Z,35.70
2022-10-17T17:02:30.359Z,36.70
2022-10-17T17:05:12.419Z,36.90
2022-10-17T17:07:56.051Z,36.20
2022-10-17T17:10:37.741Z,36.70
2022-10-17T17:13:19.738Z,39.60
2022-10-17T17:16:45.060Z,36.40
2022-10-17T17:19:27.563Z,41.40
2022-10-17T17:22:09.356Z,38.10
2022-10-17T17:24:51.153Z,37.00
2022-10-17T17:27:33.077Z,38.60
2022-10-17T17:30:15.500Z,39.20
2022-10-17T17:32:58.226Z,38.70
2022-10-17T17:35:40.882Z,35.10
2022-10-17T17:38:22.778Z,37.30
2022-10-17T17:44:03.242Z,38.20
2022-10-17T17:46:45.778Z,46.90
2022-10-17T17:49:28.115Z,42.80
2022-10-17T17:52:10.588Z,38.20
2022-10-17T17:54:52.279Z,42.50
2022-10-17T17:57:35.197Z,44.10
2022-10-17T18:00:17.604Z,44.80
2022-10-17T18:02:59.400Z,40.20
2022-10-17T18:05:41.092Z,43.50
2022-10-17T18:08:23.371Z,40.20
2022-10-17T18:11:05.297Z,46.40
2022-10-17T18:13:47.391Z,39.10
2022-10-17T18:16:31.096Z,40.70
2022-10-17T18:19:13.128Z,38.00
2022-10-17T18:21:54.819Z,40.30
2022-10-17T18:24:36.612Z,39.70
2022-10-17T18:27:18.304Z,40.50
2022-10-17T18:29:59.995Z,45.30
2022-10-17T18:32:41.889Z,49.40
2022-10-17T18:35:23.684Z,43.00
2022-10-17T18:38:05.347Z,38.20
2022-10-17T18:40:50.644Z,42.50
2022-10-17T18:43:34.491Z,42.40
2022-10-17T18:46:26.119Z,46.90
2022-10-17T18:49:10.264Z,44.80
2022-10-17T18:51:54.928Z,46.10
2022-10-17T18:54:40.460Z,48.00
2022-10-17T18:57:25.998Z,46.00
2022-10-17T19:00:14.025Z,49.30
2022-10-17T19:02:56.227Z,54.60
2022-10-17T19:05:41.889Z,58.30
2022-10-17T19:08:23.602Z,65.90
2022-10-17T19:11:10.824Z,66.60
2022-10-17T19:13:54.461Z,68.10
2022-10-17T19:16:37.505Z,79.80
2022-10-17T19:19:25.011Z,70.60
2022-10-17T19:22:07.036Z,78.50
2022-10-17T19:24:48.801Z,66.70
2022-10-17T19:27:31.821Z,61.30
2022-10-17T19:30:14.333Z,64.20
2022-10-17T19:32:56.435Z,70.50
2022-10-17T19:35:38.227Z,60.20
2022-10-17T19:38:19.919Z,61.30
2022-10-17T19:41:07.009Z,65.20
2022-10-17T19:43:49.137Z,68.20
2022-10-17T19:46:32.262Z,64.30
2022-10-17T19:49:14.773Z,65.50
2022-10-17T19:51:56.568Z,64.10
2022-10-17T19:54:40.668Z,61.90
2022-10-17T19:57:22.447Z,64.20
2022-10-17T20:00:04.782Z,60.60
2022-10-17T20:02:53.363Z,61.60
2022-10-17T20:05:38.126Z,56.70
2022-10-17T20:08:20.485Z,55.70
2022-10-17T20:11:04.683Z,53.50
2022-10-17T20:13:47.089Z,54.80
2022-10-17T20:16:32.212Z,52.00
2022-10-17T20:19:14.055Z,49.30
2022-10-17T20:21:55.748Z,47.90
2022-10-17T20:24:37.439Z,51.10
2022-10-17T20:27:19.231Z,48.10
2022-10-17T20:30:02.563Z,45.70
2022-10-17T20:32:44.662Z,42.10
2022-10-17T20:35:26.386Z,41.80
2022-10-17T20:38:08.018Z,37.20
2022-10-17T20:40:52.054Z,36.50
2022-10-17T20:43:38.398Z,36.30
2022-10-17T20:46:36.382Z,41.00
2022-10-17T20:49:20.583Z,33.10
2022-10-17T20:52:02.614Z,38.60
2022-10-17T20:54:44.405Z,47.20
2022-10-17T20:57:26.092Z,36.80
2022-10-17T21:00:08.604Z,39.30
2022-10-17T21:02:50.534Z,45.30
2022-10-17T21:05:32.394Z,41.20
2022-10-17T21:08:14.597Z,36.60
2022-10-17T21:11:10.419Z,39.00
2022-10-17T21:13:59.663Z,33.40
2022-10-17T21:16:41.970Z,45.00
2022-10-17T21:19:34.665Z,35.40
2022-10-17T21:23:00.577Z,35.30
2022-10-17T21:25:42.224Z,40.60
2022-10-17T21:28:23.908Z,36.90
2022-10-17T21:31:18.032Z,36.30
2022-10-17T21:34:05.458Z,40.30
2022-10-17T21:36:48.399Z,35.20
2022-10-17T21:39:33.448Z,35.30
2022-10-17T21:42:15.141Z,35.20
2022-10-17T21:44:56.829Z,37.80
2022-10-17T21:47:38.645Z,34.60
2022-10-17T21:50:23.488Z,36.80
2022-10-17T21:53:05.281Z,51.00
2022-10-17T21:55:46.915Z,37.80
2022-10-17T21:58:29.107Z,35.90
2022-10-17T22:01:16.698Z,39.30
2022-10-17T22:04:01.075Z,40.10
2022-10-17T22:06:44.362Z,39.50
2022-10-17T22:09:27.067Z,38.10
2022-10-17T22:12:08.894Z,40.50
2022-10-17T22:14:50.586Z,41.00
2022-10-17T22:17:32.426Z,39.50
2022-10-17T22:20:14.480Z,40.10
2022-10-17T22:22:56.170Z,39.10
2022-10-17T22:25:37.860Z,37.90
2022-10-17T22:28:19.551Z,40.90
2022-10-17T22:31:01.552Z,41.10
2022-10-17T22:33:43.415Z,41.00
2022-10-17T22:36:25.237Z,42.40
2022-10-17T22:39:07.031Z,42.80
2022-10-17T22:41:48.825Z,42.90
2022-10-17T22:44:30.516Z,42.70
2022-10-17T22:47:12.206Z,44.10
2022-10-17T22:49:53.839Z,41.90
2022-10-17T22:52:35.596Z,38.10
2022-10-17T22:55:17.483Z,40.90
2022-10-17T22:57:59.127Z,40.50
2022-10-17T23:00:40.768Z,43.10
2022-10-17T23:03:23.808Z,41.40
2022-10-17T23:06:05.682Z,38.90
2022-10-17T23:08:48.606Z,38.10
2022-10-17T23:11:30.292Z,37.70
2022-10-17T23:14:12.016Z,39.10
2022-10-17T23:16:53.673Z,39.00
2022-10-17T23:19:35.671Z,39.90
2022-10-17T23:22:17.465Z,40.10
2022-10-17T23:24:59.155Z,36.20
2022-10-17T23:27:40.846Z,35.60
2022-10-17T23:30:22.639Z,40.50
2022-10-17T23:33:04.542Z,41.70
2022-10-17T23:35:46.226Z,40.50
2022-10-17T23:38:27.917Z,46.30
2022-10-17T23:41:09.916Z,40.60
2022-10-17T23:43:51.708Z,47.20
2022-10-17T23:46:33.401Z,41.10
2022-10-17T23:49:15.194Z,41.30
2022-10-17T23:51:56.883Z,44.40
2022-10-17T23:54:38.618Z,38.10
2022-10-17T23:57:20.470Z,42.30
